createdAt,value
2023-01-12T00:00:38.512Z,0.00
2023-01-12T00:01:38.476Z,0.00
2023-01-12T00:02:38.566Z,0.00
2023-01-12T00:03:38.516Z,0.00
2023-01-12T00:04:38.562Z,0.00
2023-01-12T00:05:38.558Z,0.00
2023-01-12T00:06:38.581Z,0.00
2023-01-12T00:07:38.606Z,0.00
2023-01-12T00:08:38.623Z,0.00
2023-01-12T00:09:38.649Z,0.00
2023-01-12T00:10:38.668Z,0.00
2023-01-12T00:11:38.686Z,0.00
2023-01-12T00:12:38.707Z,0.00
2023-01-12T00:13:38.727Z,0.00
2023-01-12T00:14:38.756Z,0.00
2023-01-12T00:15:38.768Z,0.00
2023-01-12T00:16:38.795Z,0.00
2023-01-12T00:17:38.822Z,0.00
2023-01-12T00:18:38.836Z,0.00
2023-01-12T00:19:38.985Z,0.00
2023-01-12T00:20:38.875Z,0.00
2023-01-12T00:21:38.894Z,0.00
2023-01-12T00:22:38.917Z,0.00
2023-01-12T00:23:38.937Z,0.00
2023-01-12T00:24:38.961Z,0.00
2023-01-12T00:25:38.980Z,0.00
2023-01-12T00:26:39.004Z,0.00
2023-01-12T00:27:39.026Z,0.00
2023-01-12T00:28:39.043Z,0.00
2023-01-12T00:29:39.078Z,0.00
2023-01-12T00:30:39.091Z,0.00
2023-01-12T00:31:39.111Z,0.00
2023-01-12T00:32:39.146Z,0.00
2023-01-12T00:33:39.165Z,0.00
2023-01-12T00:34:39.191Z,0.00
2023-01-12T00:35:39.191Z,0.00
2023-01-12T00:36:39.222Z,0.00
2023-01-12T00:37:39.233Z,0.00
2023-01-12T00:38:39.257Z,0.00
2023-01-12T00:39:43.019Z,0.00
2023-01-12T00:40:39.298Z,0.00
2023-01-12T00:41:39.321Z,0.00
2023-01-12T00:42:39.349Z,0.00
2023-01-12T00:43:39.362Z,0.00
2023-01-12T00:44:39.385Z,0.00
2023-01-12T00:45:39.409Z,0.00
2023-01-12T00:46:39.424Z,0.00
2023-01-12T00:47:39.447Z,0.00
2023-01-12T00:48:39.531Z,0.00
2023-01-12T00:49:39.486Z,0.00
2023-01-12T00:50:39.510Z,0.00
2023-01-12T00:51:39.534Z,0.00
2023-01-12T00:52:39.550Z,0.00
2023-01-12T00:53:39.582Z,0.00
2023-01-12T00:54:39.597Z,0.00
2023-01-12T00:55:39.613Z,0.00
2023-01-12T00:56:39.641Z,0.00
2023-01-12T00:57:39.656Z,0.00
2023-01-12T00:58:39.679Z,0.00
2023-01-12T00:59:39.701Z,0.00
2023-01-12T01:00:39.720Z,0.00
2023-01-12T01:01:39.846Z,0.00
2023-01-12T01:02:39.805Z,0.00
2023-01-12T01:03:39.807Z,0.00
2023-01-12T01:04:39.809Z,0.00
2023-01-12T01:05:39.826Z,0.00
2023-01-12T01:06:39.870Z,0.00
2023-01-12T01:07:39.871Z,0.00
2023-01-12T01:08:39.895Z,0.00
2023-01-12T01:09:39.924Z,0.00
2023-01-12T01:10:39.936Z,0.00
2023-01-12T01:11:39.948Z,0.00
2023-01-12T01:12:39.977Z,0.00
2023-01-12T01:13:40.001Z,0.00
2023-01-12T01:14:40.031Z,0.00
2023-01-12T01:15:40.077Z,0.00
2023-01-12T01:16:40.059Z,0.00
2023-01-12T01:17:40.079Z,0.00
2023-01-12T01:18:40.110Z,0.00
2023-01-12T01:19:40.134Z,0.00
2023-01-12T01:20:40.144Z,0.00
2023-01-12T01:21:40.165Z,0.00
2023-01-12T01:22:40.191Z,0.00
2023-01-12T01:23:40.207Z,0.00
2023-01-12T01:24:40.226Z,0.00
2023-01-12T01:25:40.248Z,0.00
2023-01-12T01:26:40.268Z,0.00
2023-01-12T01:27:40.299Z,0.00
2023-01-12T01:28:40.313Z,0.00
2023-01-12T01:29:40.343Z,0.00
2023-01-12T01:30:40.360Z,0.00
2023-01-12T01:31:40.375Z,0.00
2023-01-12T01:32:40.398Z,0.00
2023-01-12T01:33:40.425Z,0.00
2023-01-12T01:34:40.441Z,0.00
2023-01-12T01:35:40.473Z,0.00
2023-01-12T01:36:40.484Z,0.00
2023-01-12T01:37:40.501Z,0.00
2023-01-12T01:38:40.525Z,0.00
2023-01-12T01:39:40.547Z,0.00
2023-01-12T01:40:40.581Z,0.00
2023-01-12T01:41:43.476Z,0.00
2023-01-12T01:42:40.616Z,0.00
2023-01-12T01:43:40.635Z,0.00
2023-01-12T01:44:40.653Z,0.00
2023-01-12T01:45:40.675Z,0.00
2023-01-12T01:46:40.758Z,0.00
2023-01-12T01:47:40.716Z,0.00
2023-01-12T01:48:40.742Z,0.00
2023-01-12T01:49:40.756Z,0.00
2023-01-12T01:50:40.784Z,0.00
2023-01-12T01:51:40.801Z,0.00
2023-01-12T01:52:40.827Z,0.00
2023-01-12T01:53:40.844Z,0.00
2023-01-12T01:54:40.865Z,0.00
2023-01-12T01:55:40.887Z,0.00
2023-01-12T01:56:40.913Z,0.00
2023-01-12T01:57:40.932Z,0.00
2023-01-12T01:58:40.949Z,0.00
2023-01-12T01:59:40.974Z,0.00
2023-01-12T02:00:40.993Z,0.00
2023-01-12T02:01:41.070Z,0.00
2023-01-12T02:02:41.078Z,0.00
2023-01-12T02:03:41.058Z,0.00
2023-01-12T02:04:41.076Z,0.00
2023-01-12T02:05:41.099Z,0.00
2023-01-12T02:06:41.116Z,0.00
2023-01-12T02:07:41.139Z,0.00
2023-01-12T02:08:41.162Z,0.00
2023-01-12T02:09:41.186Z,0.00
2023-01-12T02:10:41.201Z,0.00
2023-01-12T02:11:41.242Z,0.00
2023-01-12T02:12:41.267Z,0.00
2023-01-12T02:13:41.264Z,0.00
2023-01-12T02:14:41.287Z,0.00
2023-01-12T02:15:41.346Z,0.00
2023-01-12T02:16:41.344Z,0.00
2023-01-12T02:17:41.359Z,0.00
2023-01-12T02:18:41.373Z,0.00
2023-01-12T02:19:41.396Z,0.00
2023-01-12T02:20:41.426Z,0.00
2023-01-12T02:21:41.434Z,0.00
2023-01-12T02:22:41.456Z,0.00
2023-01-12T02:23:41.499Z,0.00
2023-01-12T02:24:41.502Z,0.00
2023-01-12T02:25:41.520Z,0.00
2023-01-12T02:26:41.543Z,0.00
2023-01-12T02:27:41.559Z,0.00
2023-01-12T02:28:41.592Z,0.00
2023-01-12T02:29:41.603Z,0.00
2023-01-12T02:30:41.624Z,0.00
2023-01-12T02:31:41.735Z,0.00
2023-01-12T02:32:41.676Z,0.00
2023-01-12T02:33:41.696Z,0.00
2023-01-12T02:34:41.712Z,0.00
2023-01-12T02:35:41.741Z,0.00
2023-01-12T02:36:41.756Z,0.00
2023-01-12T02:37:41.772Z,0.00
2023-01-12T02:38:41.794Z,0.00
2023-01-12T02:39:41.833Z,0.00
2023-01-12T02:40:41.844Z,0.00
2023-01-12T02:41:41.863Z,0.00
2023-01-12T02:42:41.883Z,0.00
2023-01-12T02:43:41.904Z,0.00
2023-01-12T02:44:41.931Z,0.00
2023-01-12T02:45:41.951Z,0.00
2023-01-12T02:46:42.021Z,0.00
2023-01-12T02:47:41.988Z,0.00
2023-01-12T02:48:42.019Z,0.00
2023-01-12T02:49:42.029Z,0.00
2023-01-12T02:50:42.055Z,0.00
2023-01-12T02:51:42.070Z,0.00
2023-01-12T02:52:42.095Z,0.00
2023-01-12T02:53:42.127Z,0.00
2023-01-12T02:54:42.140Z,0.00
2023-01-12T02:55:42.159Z,0.00
2023-01-12T02:56:42.250Z,0.00
2023-01-12T02:57:42.200Z,0.00
2023-01-12T02:58:42.228Z,0.00
2023-01-12T02:59:42.243Z,0.00
2023-01-12T03:00:42.327Z,0.00
2023-01-12T03:01:42.333Z,0.00
2023-01-12T03:02:42.337Z,0.00
2023-01-12T03:03:42.338Z,0.00
2023-01-12T03:04:42.365Z,0.00
2023-01-12T03:05:42.375Z,0.00
2023-01-12T03:06:42.410Z,0.00
2023-01-12T03:07:42.415Z,0.00
2023-01-12T03:08:42.437Z,0.00
2023-01-12T03:09:42.459Z,0.00
2023-01-12T03:10:42.497Z,0.00
2023-01-12T03:11:42.500Z,0.00
2023-01-12T03:12:42.540Z,0.00
2023-01-12T03:13:42.547Z,0.00
2023-01-12T03:14:42.563Z,0.00
2023-01-12T03:15:42.582Z,0.00
2023-01-12T03:16:42.612Z,0.00
2023-01-12T03:17:42.629Z,0.00
2023-01-12T03:18:42.661Z,0.00
2023-01-12T03:19:42.673Z,0.00
2023-01-12T03:20:42.691Z,0.00
2023-01-12T03:21:42.714Z,0.00
2023-01-12T03:22:42.740Z,0.00
2023-01-12T03:23:42.757Z,0.00
2023-01-12T03:24:42.783Z,0.00
2023-01-12T03:25:42.798Z,0.00
2023-01-12T03:26:42.822Z,0.00
2023-01-12T03:27:42.851Z,0.00
2023-01-12T03:28:42.909Z,0.00
2023-01-12T03:29:42.904Z,0.00
2023-01-12T03:30:42.908Z,0.00
2023-01-12T03:31:42.992Z,0.00
2023-01-12T03:32:42.949Z,0.00
2023-01-12T03:33:42.970Z,0.00
2023-01-12T03:34:42.995Z,0.00
2023-01-12T03:35:43.015Z,0.00
2023-01-12T03:36:43.044Z,0.00
2023-01-12T03:37:43.055Z,0.00
2023-01-12T03:38:43.080Z,0.00
2023-01-12T03:39:43.103Z,0.00
2023-01-12T03:40:43.124Z,0.00
2023-01-12T03:41:43.143Z,0.00
2023-01-12T03:42:43.165Z,0.00
2023-01-12T03:43:43.190Z,0.00
2023-01-12T03:44:43.206Z,0.00
2023-01-12T03:45:43.229Z,0.00
2023-01-12T03:46:43.258Z,0.00
2023-01-12T03:47:43.275Z,0.00
2023-01-12T03:48:43.292Z,0.00
2023-01-12T03:49:43.313Z,0.00
2023-01-12T03:50:43.335Z,0.00
2023-01-12T03:51:43.352Z,0.00
2023-01-12T03:52:43.376Z,0.00
2023-01-12T03:53:43.402Z,0.00
2023-01-12T03:54:43.431Z,0.00
2023-01-12T03:55:43.441Z,0.00
2023-01-12T03:56:43.466Z,0.00
2023-01-12T03:57:43.485Z,0.00
2023-01-12T03:58:43.505Z,0.00
2023-01-12T03:59:43.531Z,0.00
2023-01-12T04:00:43.575Z,0.00
2023-01-12T04:01:43.711Z,0.00
2023-01-12T04:02:43.589Z,0.00
2023-01-12T04:03:43.616Z,0.00
2023-01-12T04:04:43.648Z,0.00
2023-01-12T04:05:43.663Z,0.00
2023-01-12T04:06:43.676Z,0.00
2023-01-12T04:07:43.700Z,0.00
2023-01-12T04:08:43.719Z,0.00
2023-01-12T04:09:43.745Z,0.00
2023-01-12T04:10:43.778Z,0.00
2023-01-12T04:11:43.785Z,0.00
2023-01-12T04:12:43.805Z,0.00
2023-01-12T04:13:43.825Z,0.00
2023-01-12T04:14:46.121Z,0.00
2023-01-12T04:15:43.869Z,0.00
2023-01-12T04:16:43.894Z,0.00
2023-01-12T04:17:43.916Z,0.00
2023-01-12T04:18:43.938Z,0.00
2023-01-12T04:19:43.961Z,0.00
2023-01-12T04:20:43.977Z,0.00
2023-01-12T04:21:43.995Z,0.00
2023-01-12T04:22:44.019Z,0.00
2023-01-12T04:23:44.041Z,0.00
2023-01-12T04:24:44.064Z,0.00
2023-01-12T04:25:44.120Z,0.00
2023-01-12T04:26:44.104Z,0.00
2023-01-12T04:27:44.123Z,0.00
2023-01-12T04:28:44.147Z,0.00
2023-01-12T04:29:44.165Z,0.00
2023-01-12T04:30:44.191Z,0.00
2023-01-12T04:31:44.261Z,0.00
2023-01-12T04:32:44.236Z,0.00
2023-01-12T04:33:44.250Z,0.00
2023-01-12T04:34:44.287Z,0.00
2023-01-12T04:35:44.295Z,0.00
2023-01-12T04:36:44.317Z,0.00
2023-01-12T04:37:44.343Z,0.00
2023-01-12T04:38:44.374Z,0.00
2023-01-12T04:39:44.392Z,0.00
2023-01-12T04:40:44.403Z,0.00
2023-01-12T04:41:44.426Z,0.00
2023-01-12T04:42:44.443Z,0.00
2023-01-12T04:43:44.471Z,0.00
2023-01-12T04:44:44.487Z,0.00
2023-01-12T04:45:44.539Z,0.00
2023-01-12T04:46:44.532Z,0.00
2023-01-12T04:47:44.552Z,0.00
2023-01-12T04:48:44.579Z,0.00
2023-01-12T04:49:44.595Z,0.00
2023-01-12T04:50:44.643Z,0.00
2023-01-12T04:51:44.640Z,0.00
2023-01-12T04:52:44.659Z,0.00
2023-01-12T04:53:44.769Z,0.00
2023-01-12T04:54:44.709Z,0.00
2023-01-12T04:55:44.721Z,0.00
2023-01-12T04:56:44.746Z,0.00
2023-01-12T04:57:44.764Z,0.00
2023-01-12T04:58:44.797Z,0.00
2023-01-12T04:59:44.808Z,0.00
2023-01-12T05:00:44.824Z,0.00
2023-01-12T05:01:44.881Z,0.00
2023-01-12T05:02:44.884Z,0.00
2023-01-12T05:03:44.957Z,0.00
2023-01-12T05:04:44.915Z,0.00
2023-01-12T05:05:44.935Z,0.00
2023-01-12T05:06:44.961Z,0.00
2023-01-12T05:07:44.978Z,0.00
2023-01-12T05:08:45.002Z,0.00
2023-01-12T05:09:45.026Z,0.00
2023-01-12T05:10:45.040Z,0.00
2023-01-12T05:11:45.064Z,0.00
2023-01-12T05:12:45.092Z,0.00
2023-01-12T05:13:45.108Z,0.00
2023-01-12T05:14:45.137Z,0.00
2023-01-12T05:15:45.148Z,0.00
2023-01-12T05:16:45.223Z,0.00
2023-01-12T05:17:45.186Z,0.00
2023-01-12T05:18:45.216Z,0.00
2023-01-12T05:19:45.236Z,0.00
2023-01-12T05:20:45.322Z,0.00
2023-01-12T05:21:45.301Z,0.00
2023-01-12T05:22:45.295Z,0.00
2023-01-12T05:23:45.320Z,0.00
2023-01-12T05:24:45.339Z,0.00
2023-01-12T05:25:45.363Z,0.00
2023-01-12T05:26:45.387Z,0.00
2023-01-12T05:27:45.411Z,0.00
2023-01-12T05:28:45.426Z,0.00
2023-01-12T05:29:45.445Z,0.00
2023-01-12T05:30:45.482Z,0.00
2023-01-12T05:31:45.493Z,0.00
2023-01-12T05:32:45.508Z,0.00
2023-01-12T05:33:45.534Z,0.00
2023-01-12T05:34:45.554Z,0.00
2023-01-12T05:35:45.572Z,0.00
2023-01-12T05:36:45.599Z,0.00
2023-01-12T05:37:45.618Z,0.00
2023-01-12T05:38:45.635Z,0.00
2023-01-12T05:39:45.664Z,0.00
2023-01-12T05:40:45.682Z,0.00
2023-01-12T05:41:45.704Z,0.00
2023-01-12T05:42:45.725Z,0.00
2023-01-12T05:43:45.746Z,0.00
2023-01-12T05:44:45.769Z,0.00
2023-01-12T05:45:45.800Z,0.00
2023-01-12T05:46:45.812Z,0.00
2023-01-12T05:47:45.856Z,0.00
2023-01-12T05:48:45.853Z,0.00
2023-01-12T05:49:45.876Z,0.00
2023-01-12T05:50:45.894Z,0.00
2023-01-12T05:51:45.920Z,0.00
2023-01-12T05:52:45.975Z,0.00
2023-01-12T05:53:45.977Z,0.00
2023-01-12T05:54:46.003Z,0.00
2023-01-12T05:55:46.004Z,0.00
2023-01-12T05:56:46.857Z,0.00
2023-01-12T05:57:46.043Z,0.00
2023-01-12T05:58:46.068Z,0.00
2023-01-12T05:59:46.088Z,0.00
2023-01-12T06:00:46.113Z,0.00
2023-01-12T06:01:46.134Z,0.00
2023-01-12T06:02:46.154Z,0.00
2023-01-12T06:03:46.179Z,0.00
2023-01-12T06:04:46.299Z,0.00
2023-01-12T06:05:46.216Z,0.00
2023-01-12T06:06:46.237Z,0.00
2023-01-12T06:07:46.263Z,0.00
2023-01-12T06:08:46.297Z,0.00
2023-01-12T06:09:46.307Z,0.00
2023-01-12T06:10:46.323Z,0.00
2023-01-12T06:11:46.354Z,0.00
2023-01-12T06:12:46.368Z,0.00
2023-01-12T06:13:46.393Z,0.00
2023-01-12T06:14:46.404Z,0.00
2023-01-12T06:15:46.508Z,0.00
2023-01-12T06:16:46.452Z,0.00
2023-01-12T06:17:46.512Z,0.00
2023-01-12T06:18:46.503Z,0.00
2023-01-12T06:19:46.528Z,0.00
2023-01-12T06:20:46.628Z,0.00
2023-01-12T06:21:46.593Z,0.00
2023-01-12T06:22:46.591Z,0.00
2023-01-12T06:23:46.613Z,0.00
2023-01-12T06:24:46.647Z,0.00
2023-01-12T06:25:46.642Z,0.00
2023-01-12T06:26:46.667Z,0.00
2023-01-12T06:27:46.686Z,0.00
2023-01-12T06:28:46.728Z,0.00
2023-01-12T06:29:46.732Z,0.00
2023-01-12T06:30:46.795Z,0.00
2023-01-12T06:31:46.769Z,0.00
2023-01-12T06:32:46.809Z,0.00
2023-01-12T06:33:46.813Z,0.00
2023-01-12T06:34:46.840Z,0.00
2023-01-12T06:35:46.860Z,0.00
2023-01-12T06:36:46.875Z,0.00
2023-01-12T06:37:46.894Z,0.00
2023-01-12T06:38:46.922Z,0.00
2023-01-12T06:39:46.942Z,0.00
2023-01-12T06:40:46.963Z,0.00
2023-01-12T06:41:46.984Z,0.00
2023-01-12T06:42:47.003Z,0.00
2023-01-12T06:43:47.024Z,0.00
2023-01-12T06:44:48.819Z,0.00
2023-01-12T06:45:47.073Z,0.00
2023-01-12T06:46:47.092Z,0.00
2023-01-12T06:47:47.113Z,0.00
2023-01-12T06:48:47.143Z,0.00
2023-01-12T06:49:47.154Z,0.00
2023-01-12T06:50:47.254Z,0.00
2023-01-12T06:51:47.193Z,0.00
2023-01-12T06:52:47.215Z,0.00
2023-01-12T06:53:47.234Z,0.00
2023-01-12T06:54:47.267Z,0.00
2023-01-12T06:55:47.286Z,0.00
2023-01-12T06:56:47.323Z,0.00
2023-01-12T06:57:47.325Z,0.00
2023-01-12T06:58:47.342Z,0.00
2023-01-12T06:59:47.362Z,0.00
2023-01-12T07:00:47.383Z,0.00
2023-01-12T07:01:47.472Z,0.00
2023-01-12T07:02:47.446Z,0.00
2023-01-12T07:03:47.449Z,4.00
2023-01-12T07:04:47.587Z,4.00
2023-01-12T07:05:47.490Z,4.00
2023-01-12T07:06:47.526Z,4.00
2023-01-12T07:07:47.545Z,4.00
2023-01-12T07:08:47.579Z,4.00
2023-01-12T07:09:47.576Z,4.00
2023-01-12T07:10:47.605Z,4.00
2023-01-12T07:11:47.618Z,8.00
2023-01-12T07:12:47.641Z,8.00
2023-01-12T07:13:47.660Z,8.00
2023-01-12T07:14:47.682Z,12.00
2023-01-12T07:15:47.767Z,16.00
2023-01-12T07:16:47.726Z,12.00
2023-01-12T07:17:47.755Z,16.00
2023-01-12T07:18:47.765Z,20.00
2023-01-12T07:19:47.804Z,20.00
2023-01-12T07:20:47.807Z,24.00
2023-01-12T07:21:47.827Z,24.00
2023-01-12T07:22:47.861Z,24.00
2023-01-12T07:23:47.887Z,28.00
2023-01-12T07:24:47.894Z,28.00
2023-01-12T07:25:47.911Z,32.00
2023-01-12T07:26:47.936Z,32.00
2023-01-12T07:27:47.958Z,36.00
2023-01-12T07:28:47.977Z,36.00
2023-01-12T07:29:47.998Z,40.00
2023-01-12T07:30:48.059Z,40.00
2023-01-12T07:31:48.039Z,48.00
2023-01-12T07:32:48.081Z,52.00
2023-01-12T07:33:48.082Z,56.00
2023-01-12T07:34:48.112Z,56.00
2023-01-12T07:35:48.127Z,60.00
2023-01-12T07:36:48.147Z,68.00
2023-01-12T07:37:48.166Z,72.00
2023-01-12T07:38:48.209Z,68.00
2023-01-12T07:39:48.211Z,76.00
2023-01-12T07:40:48.243Z,80.00
2023-01-12T07:41:48.253Z,80.00
2023-01-12T07:42:48.277Z,92.00
2023-01-12T07:43:48.303Z,92.00
2023-01-12T07:44:48.335Z,92.00
2023-01-12T07:45:48.336Z,96.00
2023-01-12T07:46:48.387Z,100.00
2023-01-12T07:47:48.382Z,108.00
2023-01-12T07:48:48.403Z,116.00
2023-01-12T07:49:48.428Z,120.00
2023-01-12T07:50:48.444Z,144.00
2023-01-12T07:51:48.462Z,148.00
2023-01-12T07:52:48.485Z,180.00
2023-01-12T07:53:48.505Z,184.00
2023-01-12T07:54:48.523Z,212.00
2023-01-12T07:55:48.550Z,216.00
2023-01-12T07:56:48.569Z,216.00
2023-01-12T07:57:48.588Z,216.00
2023-01-12T07:58:48.609Z,216.00
2023-01-12T07:59:48.633Z,196.00
2023-01-12T08:00:48.851Z,196.00
2023-01-12T08:01:48.742Z,148.00
2023-01-12T08:02:48.717Z,168.00
2023-01-12T08:03:48.716Z,140.00
2023-01-12T08:04:48.736Z,120.00
2023-01-12T08:05:48.792Z,132.00
2023-01-12T08:06:48.781Z,144.00
2023-01-12T08:07:48.811Z,172.00
2023-01-12T08:08:48.825Z,136.00
2023-01-12T08:09:48.862Z,136.00
2023-01-12T08:10:48.869Z,172.00
2023-01-12T08:11:48.895Z,164.00
2023-01-12T08:12:48.909Z,168.00
2023-01-12T08:13:48.928Z,244.00
2023-01-12T08:14:48.951Z,300.00
2023-01-12T08:15:49.003Z,376.00
2023-01-12T08:16:48.994Z,376.00
2023-01-12T08:17:49.011Z,332.00
2023-01-12T08:18:49.037Z,356.00
2023-01-12T08:19:49.062Z,312.00
2023-01-12T08:20:49.078Z,272.00
2023-01-12T08:21:49.101Z,248.00
2023-01-12T08:22:49.121Z,220.00
2023-01-12T08:23:49.160Z,204.00
2023-01-12T08:24:49.164Z,224.00
2023-01-12T08:25:49.182Z,248.00
2023-01-12T08:26:49.211Z,312.00
2023-01-12T08:27:49.229Z,392.00
2023-01-12T08:28:49.249Z,452.00
2023-01-12T08:29:49.267Z,504.00
2023-01-12T08:30:49.322Z,464.00
2023-01-12T08:31:49.329Z,484.00
2023-01-12T08:32:49.375Z,404.00
2023-01-12T08:33:49.356Z,304.00
2023-01-12T08:34:49.380Z,276.00
2023-01-12T08:35:49.395Z,252.00
2023-01-12T08:36:49.419Z,236.00
2023-01-12T08:37:49.437Z,236.00
2023-01-12T08:38:49.478Z,292.00
2023-01-12T08:39:49.481Z,392.00
2023-01-12T08:40:49.502Z,360.00
2023-01-12T08:41:49.525Z,492.00
2023-01-12T08:42:49.547Z,448.00
2023-01-12T08:43:49.569Z,508.00
2023-01-12T08:44:49.593Z,596.00
2023-01-12T08:45:49.610Z,624.00
2023-01-12T08:46:49.656Z,460.00
2023-01-12T08:47:49.656Z,424.00
2023-01-12T08:48:49.715Z,492.00
2023-01-12T08:49:49.701Z,448.00
2023-01-12T08:50:49.734Z,556.00
2023-01-12T08:51:49.738Z,476.00
2023-01-12T08:52:49.760Z,432.00
2023-01-12T08:53:49.791Z,504.00
2023-01-12T08:54:49.816Z,532.00
2023-01-12T08:55:49.841Z,488.00
2023-01-12T08:56:49.844Z,536.00
2023-01-12T08:57:49.865Z,464.00
2023-01-12T08:58:49.888Z,648.00
2023-01-12T08:59:49.911Z,800.00
2023-01-12T09:00:50.164Z,640.00
2023-01-12T09:01:50.161Z,620.00
2023-01-12T09:02:50.079Z,608.00
2023-01-12T09:03:50.006Z,528.00
2023-01-12T09:04:50.021Z,528.00
2023-01-12T09:05:50.041Z,764.00
2023-01-12T09:06:50.064Z,948.00
2023-01-12T09:07:50.087Z,1040.00
2023-01-12T09:08:50.110Z,776.00
2023-01-12T09:09:50.138Z,808.00
2023-01-12T09:10:50.154Z,752.00
2023-01-12T09:11:50.166Z,724.00
2023-01-12T09:12:50.202Z,848.00
2023-01-12T09:13:50.211Z,928.00
2023-01-12T09:14:50.232Z,1080.00
2023-01-12T09:16:01.444Z,1160.00
2023-01-12T09:16:50.359Z,932.00
2023-01-12T09:17:50.296Z,772.00
2023-01-12T09:18:50.319Z,1176.00
2023-01-12T09:19:50.341Z,1024.00
2023-01-12T09:20:50.380Z,1000.00
2023-01-12T09:21:50.383Z,1136.00
2023-01-12T09:22:50.404Z,968.00
2023-01-12T09:23:50.444Z,924.00
2023-01-12T09:24:50.447Z,956.00
2023-01-12T09:25:50.471Z,884.00
2023-01-12T09:26:50.498Z,828.00
2023-01-12T09:27:50.516Z,1000.00
2023-01-12T09:28:50.540Z,1336.00
2023-01-12T09:29:50.561Z,1296.00
2023-01-12T09:30:50.582Z,1296.00
2023-01-12T09:31:50.644Z,1376.00
2023-01-12T09:32:57.772Z,1388.00
2023-01-12T09:34:55.116Z,1512.00
2023-01-12T09:35:54.649Z,1268.00
2023-01-12T09:37:58.647Z,1376.00
2023-01-12T09:38:58.663Z,1344.00
2023-01-12T09:41:03.166Z,1380.00
2023-01-12T09:42:02.694Z,1276.00
2023-01-12T09:44:06.690Z,1292.00
2023-01-12T09:45:06.712Z,1756.00
2023-01-12T09:47:11.195Z,1296.00
2023-01-12T09:48:10.719Z,932.00
2023-01-12T09:50:14.738Z,952.00
2023-01-12T09:51:14.743Z,876.00
2023-01-12T09:53:19.246Z,672.00
2023-01-12T09:54:18.754Z,660.00
2023-01-12T09:56:22.770Z,576.00
2023-01-12T09:57:28.880Z,620.00
2023-01-12T09:59:27.267Z,1024.00
2023-01-12T10:00:26.809Z,880.00
2023-01-12T10:02:33.138Z,972.00
2023-01-12T10:03:30.915Z,1172.00
2023-01-12T10:05:39.682Z,1064.00
2023-01-12T10:06:34.835Z,1268.00
2023-01-12T10:08:38.840Z,1304.00
2023-01-12T10:09:38.851Z,1388.00
2023-01-12T10:11:32.329Z,1120.00
2023-01-12T10:12:31.818Z,932.00
2023-01-12T10:14:35.799Z,1028.00
2023-01-12T10:15:35.814Z,1104.00
2023-01-12T10:17:50.615Z,804.00
2023-01-12T10:18:39.826Z,780.00
2023-01-12T10:20:43.861Z,564.00
2023-01-12T10:21:43.854Z,540.00
2023-01-12T10:23:48.334Z,460.00
2023-01-12T10:24:47.866Z,580.00
2023-01-12T10:26:51.873Z,588.00
2023-01-12T10:27:51.885Z,628.00
2023-01-12T10:29:56.375Z,596.00
2023-01-12T10:30:56.609Z,644.00
2023-01-12T10:32:59.914Z,936.00
2023-01-12T10:33:59.922Z,940.00
2023-01-12T10:36:04.940Z,1412.00
2023-01-12T10:37:04.452Z,1396.00
2023-01-12T10:38:04.467Z,1352.00
2023-01-12T10:39:04.486Z,1124.00
2023-01-12T10:40:04.509Z,1512.00
2023-01-12T10:41:04.542Z,1508.00
2023-01-12T10:42:04.553Z,1336.00
2023-01-12T10:43:09.457Z,1580.00
2023-01-12T10:44:04.597Z,1768.00
2023-01-12T10:45:04.617Z,1512.00
2023-01-12T10:46:04.701Z,1616.00
2023-01-12T10:47:04.667Z,1068.00
2023-01-12T10:48:04.714Z,1144.00
2023-01-12T10:49:04.708Z,1192.00
2023-01-12T10:50:04.734Z,1340.00
2023-01-12T10:51:04.749Z,1552.00
2023-01-12T10:52:04.775Z,1284.00
2023-01-12T10:53:04.799Z,1332.00
2023-01-12T10:54:04.828Z,1688.00
2023-01-12T10:55:04.855Z,1660.00
2023-01-12T10:56:04.853Z,1848.00
2023-01-12T10:57:04.883Z,1980.00
2023-01-12T10:58:04.909Z,2156.00
2023-01-12T10:59:04.936Z,1792.00
2023-01-12T11:00:04.950Z,1588.00
2023-01-12T11:01:05.063Z,1544.00
2023-01-12T11:02:05.193Z,1660.00
2023-01-12T11:03:05.040Z,1604.00
2023-01-12T11:04:05.057Z,1540.00
2023-01-12T11:05:05.060Z,1260.00
2023-01-12T11:06:05.081Z,1404.00
2023-01-12T11:07:05.539Z,1384.00
2023-01-12T11:08:05.126Z,1424.00
2023-01-12T11:09:05.166Z,1408.00
2023-01-12T11:10:05.171Z,1520.00
2023-01-12T11:11:05.192Z,1216.00
2023-01-12T11:12:05.209Z,1288.00
2023-01-12T11:13:05.239Z,1672.00
2023-01-12T11:14:05.267Z,1476.00
2023-01-12T11:15:05.291Z,1552.00
2023-01-12T11:16:05.303Z,1780.00
2023-01-12T11:17:05.323Z,2000.00
2023-01-12T11:18:05.355Z,1856.00
2023-01-12T11:19:05.370Z,1816.00
2023-01-12T11:20:05.390Z,1672.00
2023-01-12T11:21:05.415Z,1808.00
2023-01-12T11:22:05.436Z,1584.00
2023-01-12T11:23:05.457Z,1684.00
2023-01-12T11:24:05.493Z,2044.00
2023-01-12T11:25:05.511Z,1760.00
2023-01-12T11:26:05.524Z,1584.00
2023-01-12T11:27:05.550Z,1552.00
2023-01-12T11:28:05.574Z,1500.00
2023-01-12T11:29:05.588Z,1376.00
2023-01-12T11:30:05.615Z,1308.00
2023-01-12T11:31:05.706Z,1244.00
2023-01-12T11:32:05.658Z,1476.00
2023-01-12T11:33:05.685Z,1380.00
2023-01-12T11:34:05.702Z,1628.00
2023-01-12T11:35:05.723Z,1792.00
2023-01-12T11:36:05.747Z,1676.00
2023-01-12T11:37:05.777Z,1412.00
2023-01-12T11:38:05.829Z,1488.00
2023-01-12T11:39:05.820Z,1680.00
2023-01-12T11:40:05.841Z,1752.00
2023-01-12T11:41:05.873Z,2332.00
2023-01-12T11:42:06.861Z,2028.00
2023-01-12T11:43:05.905Z,1872.00
2023-01-12T11:44:05.929Z,2448.00
2023-01-12T11:45:05.948Z,2416.00
2023-01-12T11:46:06.057Z,2328.00
2023-01-12T11:47:05.993Z,1952.00
2023-01-12T11:48:06.015Z,2236.00
2023-01-12T11:49:06.041Z,1856.00
2023-01-12T11:50:06.069Z,1520.00
2023-01-12T11:51:06.075Z,1368.00
2023-01-12T11:52:06.103Z,1500.00
2023-01-12T11:53:06.125Z,1792.00
2023-01-12T11:54:06.147Z,1564.00
2023-01-12T11:55:06.172Z,2084.00
2023-01-12T11:56:06.202Z,1584.00
2023-01-12T11:57:06.213Z,1888.00
2023-01-12T11:58:06.237Z,1764.00
2023-01-12T11:59:06.267Z,1780.00
2023-01-12T12:00:06.282Z,1560.00
2023-01-12T12:01:06.336Z,1528.00
2023-01-12T12:02:06.400Z,1600.00
2023-01-12T12:03:06.359Z,1724.00
2023-01-12T12:04:06.943Z,1716.00
2023-01-12T12:05:06.391Z,1480.00
2023-01-12T12:06:06.416Z,1644.00
2023-01-12T12:07:06.439Z,1224.00
2023-01-12T12:08:06.462Z,1168.00
2023-01-12T12:09:06.482Z,1276.00
2023-01-12T12:10:06.507Z,1692.00
2023-01-12T12:11:06.527Z,1240.00
2023-01-12T12:12:06.562Z,1308.00
2023-01-12T12:13:06.595Z,1428.00
2023-01-12T12:14:06.602Z,1412.00
2023-01-12T12:15:06.616Z,1468.00
2023-01-12T12:16:06.722Z,1840.00
2023-01-12T12:17:06.664Z,2284.00
2023-01-12T12:18:06.704Z,1952.00
2023-01-12T12:19:06.706Z,2100.00
2023-01-12T12:20:06.733Z,2112.00
2023-01-12T12:21:06.751Z,2752.00
2023-01-12T12:22:06.774Z,2420.00
2023-01-12T12:23:06.808Z,2416.00
2023-01-12T12:24:06.818Z,2468.00
2023-01-12T12:25:06.842Z,2184.00
2023-01-12T12:26:06.880Z,2528.00
2023-01-12T12:27:06.887Z,1800.00
2023-01-12T12:28:06.918Z,2196.00
2023-01-12T12:29:07.031Z,1960.00
2023-01-12T12:30:06.964Z,2056.00
2023-01-12T12:31:07.074Z,1500.00
2023-01-12T12:32:07.003Z,1976.00
2023-01-12T12:33:07.023Z,1724.00
2023-01-12T12:34:07.040Z,1424.00
2023-01-12T12:35:07.063Z,1824.00
2023-01-12T12:36:07.088Z,1948.00
2023-01-12T12:37:07.130Z,1532.00
2023-01-12T12:38:07.133Z,2452.00
2023-01-12T12:39:07.159Z,2192.00
2023-01-12T12:40:07.196Z,2404.00
2023-01-12T12:41:07.202Z,2436.00
2023-01-12T12:42:07.223Z,2484.00
2023-01-12T12:43:07.245Z,2360.00
2023-01-12T12:44:07.269Z,1728.00
2023-01-12T12:45:07.299Z,1732.00
2023-01-12T12:46:07.336Z,1512.00
2023-01-12T12:47:07.336Z,1292.00
2023-01-12T12:48:07.388Z,1128.00
2023-01-12T12:49:07.382Z,1204.00
2023-01-12T12:50:07.407Z,1332.00
2023-01-12T12:51:07.428Z,1164.00
2023-01-12T12:52:07.451Z,1168.00
2023-01-12T12:53:07.472Z,1328.00
2023-01-12T12:54:07.493Z,852.00
2023-01-12T12:55:07.520Z,872.00
2023-01-12T12:56:07.548Z,852.00
2023-01-12T12:57:07.562Z,784.00
2023-01-12T12:58:07.586Z,876.00
2023-01-12T12:59:07.619Z,644.00
2023-01-12T13:00:07.642Z,916.00
2023-01-12T13:01:07.681Z,808.00
2023-01-12T13:02:07.726Z,804.00
2023-01-12T13:03:07.730Z,968.00
2023-01-12T13:04:07.720Z,1004.00
2023-01-12T13:05:07.742Z,1152.00
2023-01-12T13:06:07.771Z,1280.00
2023-01-12T13:07:07.792Z,1376.00
2023-01-12T13:08:07.808Z,1024.00
2023-01-12T13:09:07.833Z,980.00
2023-01-12T13:10:07.862Z,988.00
2023-01-12T13:11:07.888Z,960.00
2023-01-12T13:12:07.909Z,1036.00
2023-01-12T13:13:07.923Z,1056.00
2023-01-12T13:14:07.948Z,1716.00